Terminal Aerodrome Forecast
Issued by NWS Grand Forks, ND

Home | Current Version | Previous Version | Text Only | Print | Product List | Glossary Off
Versions: 1 2 3 4 5 6 7 8 9 10 11 12

000
FTUS43 KFGF 211720
TAFFAR
TAF
KFAR 211720Z 2118/2218 32009KT P6SM SKC
     FM211900 36009KT P6SM SKC
     FM220200 VRB03KT P6SM SKC
     FM221500 16007KT P6SM SCT250=

USA.gov is the U.S. government's official web portal to all federal, state and local government web resources and services.